createdAt,value
2019-05-07T00:01:18.398Z,1.30
2019-05-07T00:03:47.599Z,1.17
2019-05-07T00:06:16.905Z,1.10
2019-05-07T00:08:46.389Z,1.20
2019-05-07T00:11:15.604Z,1.20
2019-05-07T00:13:45.040Z,1.20
2019-05-07T00:16:14.513Z,1.30
2019-05-07T00:18:43.719Z,0.97
2019-05-07T00:21:12.941Z,1.30
2019-05-07T00:23:43.232Z,1.13
2019-05-07T00:26:13.331Z,1.27
2019-05-07T00:28:43.399Z,1.10
2019-05-07T00:31:13.255Z,1.20
2019-05-07T00:33:43.223Z,1.23
2019-05-07T00:36:23.136Z,1.07
2019-05-07T00:38:57.668Z,0.97
2019-05-07T00:41:36.777Z,1.23
2019-05-07T00:44:07.081Z,1.00
2019-05-07T00:46:36.655Z,1.17
2019-05-07T00:49:06.022Z,1.10
2019-05-07T00:51:36.045Z,1.00
2019-05-07T00:54:06.163Z,1.10
2019-05-07T00:56:35.640Z,1.30
2019-05-07T00:59:04.856Z,1.40
2019-05-07T01:01:34.944Z,1.30
2019-05-07T01:04:04.676Z,1.13
2019-05-07T01:06:33.976Z,1.20
2019-05-07T01:09:05.192Z,1.20
2019-05-07T01:11:34.820Z,1.30
2019-05-07T01:14:04.247Z,1.47
2019-05-07T01:16:33.554Z,1.00
2019-05-07T01:19:02.899Z,0.83
2019-05-07T01:21:32.650Z,1.00
2019-05-07T01:24:03.227Z,1.13
2019-05-07T01:26:33.291Z,1.13
2019-05-07T01:29:03.323Z,0.97
2019-05-07T01:31:37.807Z,1.30
2019-05-07T01:34:19.033Z,1.00
2019-05-07T01:36:48.395Z,0.97
2019-05-07T01:39:17.608Z,1.37
2019-05-07T01:41:46.908Z,1.20
2019-05-07T01:44:16.411Z,0.97
2019-05-07T01:46:45.621Z,1.10
2019-05-07T01:49:14.952Z,1.17
2019-05-07T01:51:44.413Z,1.10
2019-05-07T01:54:13.626Z,1.00
2019-05-07T01:56:42.914Z,0.90
2019-05-07T01:59:12.520Z,1.10
2019-05-07T02:01:42.953Z,1.10
2019-05-07T02:04:19.823Z,1.03
2019-05-07T02:07:06.994Z,1.27
2019-05-07T02:09:53.777Z,1.10
2019-05-07T02:12:26.345Z,0.93
2019-05-07T02:14:55.833Z,1.13
2019-05-07T02:17:25.198Z,1.37
2019-05-07T02:19:54.409Z,1.10
2019-05-07T02:22:23.707Z,1.00
2019-05-07T02:24:52.958Z,1.20
2019-05-07T02:27:22.271Z,0.90
2019-05-07T02:29:52.873Z,0.90
2019-05-07T02:32:24.055Z,1.50
2019-05-07T02:34:54.528Z,0.73
2019-05-07T02:37:37.629Z,1.07
2019-05-07T02:40:29.019Z,0.90
2019-05-07T02:42:58.257Z,0.83
2019-05-07T02:45:37.913Z,1.07
2019-05-07T02:48:07.198Z,1.03
2019-05-07T02:50:49.386Z,0.90
2019-05-07T02:53:27.910Z,0.93
2019-05-07T02:55:57.740Z,1.07
2019-05-07T02:58:26.965Z,0.90
2019-05-07T03:00:56.435Z,0.97
2019-05-07T03:03:25.955Z,1.00
2019-05-07T03:05:55.277Z,0.90
2019-05-07T03:08:27.566Z,1.40
2019-05-07T03:10:55.828Z,0.90
2019-05-07T03:13:25.165Z,1.03
2019-05-07T03:15:54.515Z,0.80
2019-05-07T03:18:24.155Z,0.90
2019-05-07T03:20:57.937Z,0.87
2019-05-07T03:23:34.200Z,1.13
2019-05-07T03:26:13.804Z,0.93
2019-05-07T03:28:53.560Z,1.10
2019-05-07T03:31:46.033Z,1.00
2019-05-07T03:34:36.776Z,1.10
2019-05-07T03:39:50.466Z,1.17
2019-05-07T03:42:19.724Z,1.10
2019-05-07T03:45:04.595Z,1.20
2019-05-07T03:47:39.180Z,0.83
2019-05-07T03:50:14.663Z,1.10
2019-05-07T03:52:43.187Z,1.40
2019-05-07T03:55:14.550Z,1.50
2019-05-07T03:57:44.345Z,1.40
2019-05-07T04:00:14.158Z,1.37
2019-05-07T04:02:44.008Z,1.20
2019-05-07T04:05:14.549Z,1.20
2019-05-07T04:07:44.012Z,1.57
2019-05-07T04:10:15.043Z,1.30
2019-05-07T04:12:44.715Z,1.13
2019-05-07T04:15:18.802Z,1.40
2019-05-07T04:17:45.491Z,1.60
2019-05-07T04:20:15.304Z,1.40
2019-05-07T04:22:44.526Z,1.73
2019-05-07T04:25:34.639Z,1.43
2019-05-07T04:28:33.376Z,1.30
2019-05-07T04:31:03.357Z,1.17
2019-05-07T04:33:37.013Z,1.40
2019-05-07T04:36:14.594Z,1.40
2019-05-07T04:38:44.312Z,0.97
2019-05-07T04:41:14.015Z,1.10
2019-05-07T04:43:43.916Z,0.93
2019-05-07T04:46:14.483Z,0.97
2019-05-07T04:48:44.385Z,1.23
2019-05-07T04:51:16.157Z,1.10
2019-05-07T04:53:45.539Z,1.33
2019-05-07T04:56:14.888Z,1.37
2019-05-07T04:58:44.147Z,0.90
2019-05-07T05:01:15.124Z,1.17
2019-05-07T05:03:44.355Z,0.90
2019-05-07T05:06:13.909Z,1.10
2019-05-07T05:08:43.848Z,1.03
2019-05-07T05:11:13.209Z,0.83
2019-05-07T05:13:44.479Z,1.60
2019-05-07T05:16:28.891Z,1.00
2019-05-07T05:18:59.028Z,1.00
2019-05-07T05:21:42.011Z,1.20
2019-05-07T05:24:15.022Z,0.90
2019-05-07T05:26:44.389Z,1.10
2019-05-07T05:29:13.600Z,0.57
2019-05-07T05:31:43.185Z,0.90
2019-05-07T05:34:13.204Z,0.90
2019-05-07T05:36:42.817Z,1.00
2019-05-07T05:39:13.158Z,0.70
2019-05-07T05:41:44.998Z,1.00
2019-05-07T05:44:28.458Z,1.00
2019-05-07T05:46:59.195Z,0.67
2019-05-07T05:49:28.412Z,0.80
2019-05-07T05:52:25.742Z,0.87
2019-05-07T05:54:59.225Z,0.70
2019-05-07T05:57:42.779Z,0.73
2019-05-07T06:00:32.842Z,0.80
2019-05-07T06:03:22.588Z,0.57
2019-05-07T06:06:01.928Z,0.80
2019-05-07T06:08:59.005Z,0.60
2019-05-07T06:11:35.376Z,0.60
2019-05-07T06:14:22.717Z,0.57
2019-05-07T06:17:13.936Z,0.80
2019-05-07T06:19:49.250Z,0.60
2019-05-07T06:22:35.085Z,0.80
2019-05-07T06:25:15.443Z,0.83
2019-05-07T06:27:44.968Z,0.80
2019-05-07T06:30:17.302Z,0.70
2019-05-07T06:32:46.790Z,0.90
2019-05-07T06:35:19.087Z,0.80
2019-05-07T06:37:48.868Z,0.83
2019-05-07T06:40:32.056Z,0.70
2019-05-07T06:43:07.812Z,0.90
2019-05-07T06:45:42.228Z,0.97
2019-05-07T06:48:12.768Z,0.40
2019-05-07T06:50:56.723Z,0.70
2019-05-07T06:53:32.998Z,0.70
2019-05-07T06:56:03.130Z,0.77
2019-05-07T06:58:38.242Z,0.40
2019-05-07T07:01:23.791Z,0.50
2019-05-07T07:04:07.796Z,0.60
2019-05-07T07:06:57.489Z,0.67
2019-05-07T07:09:44.672Z,0.70
2019-05-07T07:12:17.884Z,0.83
2019-05-07T07:14:47.420Z,0.87
2019-05-07T07:17:16.730Z,0.70
2019-05-07T07:19:46.053Z,1.03
2019-05-07T07:22:15.672Z,0.60
2019-05-07T07:24:44.896Z,0.57
2019-05-07T07:27:14.158Z,0.80
2019-05-07T07:29:52.801Z,1.07
2019-05-07T07:32:26.321Z,0.30
2019-05-07T07:34:55.727Z,0.63
2019-05-07T07:37:32.029Z,0.80
2019-05-07T07:40:22.474Z,0.63
2019-05-07T07:42:52.130Z,0.60
2019-05-07T07:45:23.020Z,0.40
2019-05-07T07:47:53.136Z,0.50
2019-05-07T07:50:22.603Z,0.63
2019-05-07T07:52:52.943Z,0.47
2019-05-07T07:55:29.060Z,0.30
2019-05-07T07:58:12.042Z,0.50
2019-05-07T08:00:59.065Z,0.60
2019-05-07T08:03:28.744Z,0.70
2019-05-07T08:05:58.502Z,0.73
2019-05-07T08:08:32.186Z,0.50
2019-05-07T08:11:02.383Z,0.60
2019-05-07T08:13:32.521Z,0.57
2019-05-07T08:16:02.552Z,0.90
2019-05-07T08:18:32.826Z,0.70
2019-05-07T08:21:02.613Z,0.73
2019-05-07T08:23:32.082Z,0.90
2019-05-07T08:26:02.557Z,1.30
2019-05-07T08:28:32.114Z,0.67
2019-05-07T08:31:17.505Z,0.83
2019-05-07T08:33:54.021Z,0.70
2019-05-07T08:36:23.476Z,0.50
2019-05-07T08:38:53.814Z,0.70
2019-05-07T08:41:24.758Z,1.00
2019-05-07T08:44:10.734Z,0.73
2019-05-07T08:46:53.406Z,0.80
2019-05-07T08:49:35.808Z,0.30
2019-05-07T08:52:03.327Z,0.30
2019-05-07T08:54:32.705Z,0.60
2019-05-07T08:57:02.675Z,0.90
2019-05-07T08:59:33.424Z,0.90
2019-05-07T09:02:03.234Z,0.50
2019-05-07T09:04:32.961Z,0.70
2019-05-07T09:07:03.012Z,0.70
2019-05-07T09:09:32.786Z,0.50
2019-05-07T09:12:03.047Z,0.60
2019-05-07T09:14:32.647Z,0.50
2019-05-07T09:17:02.791Z,0.80
2019-05-07T09:19:46.931Z,0.50
2019-05-07T09:22:04.441Z,0.80
2019-05-07T09:24:33.656Z,1.03
2019-05-07T09:27:28.222Z,1.10
2019-05-07T09:30:16.418Z,1.00
2019-05-07T09:32:59.063Z,1.93
2019-05-07T09:35:33.717Z,0.50
2019-05-07T09:38:05.448Z,0.87
2019-05-07T09:40:34.665Z,0.67
2019-05-07T09:43:04.005Z,1.00
2019-05-07T09:45:34.587Z,0.90
2019-05-07T09:48:05.340Z,1.00
2019-05-07T09:50:34.717Z,0.67
2019-05-07T09:53:04.318Z,0.90
2019-05-07T09:55:33.521Z,0.50
2019-05-07T09:58:02.779Z,0.63
2019-05-07T10:00:32.424Z,0.73
2019-05-07T10:03:01.761Z,0.80
2019-05-07T10:05:32.185Z,0.60
2019-05-07T10:08:02.178Z,0.70
2019-05-07T10:10:32.920Z,0.87
2019-05-07T10:13:08.031Z,0.60
2019-05-07T10:15:37.664Z,0.70
2019-05-07T10:18:13.422Z,0.80
2019-05-07T10:20:43.381Z,0.90
2019-05-07T10:23:22.954Z,1.10
2019-05-07T10:25:56.754Z,0.70
2019-05-07T10:28:26.113Z,0.60
2019-05-07T10:30:55.691Z,0.70
2019-05-07T10:33:24.928Z,0.83
2019-05-07T10:35:54.466Z,0.60
2019-05-07T10:38:23.908Z,0.83
2019-05-07T10:40:53.488Z,0.90
2019-05-07T10:43:23.080Z,0.70
2019-05-07T10:46:12.774Z,0.70
2019-05-07T10:48:49.562Z,0.67
2019-05-07T10:51:18.875Z,0.80
2019-05-07T10:53:48.685Z,0.80
2019-05-07T10:56:18.150Z,0.87
2019-05-07T10:58:47.434Z,0.70
2019-05-07T11:01:22.442Z,0.80
2019-05-07T11:03:51.843Z,0.50
2019-05-07T11:06:22.097Z,0.80
2019-05-07T11:08:53.252Z,0.70
2019-05-07T11:11:22.522Z,0.73
2019-05-07T11:13:56.133Z,0.50
2019-05-07T11:16:27.614Z,0.60
2019-05-07T11:18:56.827Z,0.50
2019-05-07T11:21:33.600Z,0.60
2019-05-07T11:24:05.396Z,0.50
2019-05-07T11:26:34.839Z,0.20
2019-05-07T11:29:05.549Z,0.60
2019-05-07T11:31:34.772Z,0.70
2019-05-07T11:34:04.997Z,0.43
2019-05-07T11:36:34.390Z,0.60
2019-05-07T11:39:05.956Z,0.73
2019-05-07T11:41:45.742Z,0.70
2019-05-07T11:44:19.566Z,0.60
2019-05-07T11:47:06.378Z,0.70
2019-05-07T11:49:53.531Z,0.90
2019-05-07T11:52:35.796Z,0.40
2019-05-07T11:55:04.647Z,0.70
2019-05-07T11:57:33.868Z,0.40
2019-05-07T12:00:03.388Z,0.60
2019-05-07T12:02:32.824Z,0.80
2019-05-07T12:05:02.305Z,0.40
2019-05-07T12:07:32.761Z,0.57
2019-05-07T12:10:04.899Z,0.30
2019-05-07T12:12:33.207Z,0.40
2019-05-07T12:15:02.592Z,0.53
2019-05-07T12:17:32.205Z,0.40
2019-05-07T12:20:02.347Z,0.87
2019-05-07T12:22:47.706Z,0.70
2019-05-07T12:25:19.572Z,0.60
2019-05-07T12:27:50.428Z,0.50
2019-05-07T12:30:51.826Z,0.47
2019-05-07T12:33:42.808Z,0.50
2019-05-07T12:36:15.487Z,0.50
2019-05-07T12:38:45.250Z,0.23
2019-05-07T12:41:29.858Z,0.77
2019-05-07T12:44:02.535Z,0.20
2019-05-07T12:46:33.345Z,0.43
2019-05-07T12:49:03.424Z,0.43
2019-05-07T12:51:38.093Z,0.50
2019-05-07T12:54:22.690Z,0.30
2019-05-07T12:56:52.236Z,0.40
2019-05-07T12:59:21.900Z,0.33
2019-05-07T13:02:18.325Z,0.70
2019-05-07T13:04:38.469Z,0.33
2019-05-07T13:07:26.841Z,0.60
2019-05-07T13:09:56.052Z,0.30
2019-05-07T13:12:25.331Z,0.43
2019-05-07T13:14:54.808Z,0.40
2019-05-07T13:17:24.050Z,0.40
2019-05-07T13:19:53.262Z,0.30
2019-05-07T13:22:22.608Z,0.20
2019-05-07T13:24:52.970Z,0.50
2019-05-07T13:27:22.260Z,0.50
2019-05-07T13:29:53.112Z,0.50
2019-05-07T13:32:23.236Z,0.30
2019-05-07T13:34:55.255Z,0.30
2019-05-07T13:37:27.547Z,0.30
2019-05-07T13:40:04.757Z,0.30
2019-05-07T13:42:45.630Z,0.40
2019-05-07T13:45:32.525Z,0.70
2019-05-07T13:48:12.125Z,0.63
2019-05-07T13:50:42.013Z,0.43
2019-05-07T13:53:12.362Z,0.60
2019-05-07T13:55:42.315Z,0.63
2019-05-07T13:58:14.249Z,0.40
2019-05-07T14:00:55.239Z,0.30
2019-05-07T14:03:24.643Z,0.50
2019-05-07T14:05:53.990Z,0.23
2019-05-07T14:08:24.679Z,0.37
2019-05-07T14:10:54.111Z,0.40
2019-05-07T14:13:23.339Z,0.20
2019-05-07T14:16:12.118Z,0.40
2019-05-07T14:18:41.690Z,0.40
2019-05-07T14:21:12.949Z,0.30
2019-05-07T14:23:42.767Z,0.40
2019-05-07T14:26:12.176Z,0.50
2019-05-07T14:28:42.286Z,0.30
2019-05-07T14:31:12.398Z,0.40
2019-05-07T14:33:53.970Z,0.30
2019-05-07T14:36:27.407Z,0.30
2019-05-07T14:38:58.016Z,0.60
2019-05-07T14:41:27.190Z,0.30
2019-05-07T14:44:02.610Z,0.40
2019-05-07T14:46:43.916Z,0.30
2019-05-07T14:49:02.884Z,0.30
2019-05-07T14:51:32.731Z,0.33
2019-05-07T14:54:02.136Z,0.77
2019-05-07T14:56:32.253Z,0.50
2019-05-07T14:59:02.411Z,0.30
2019-05-07T15:01:33.797Z,0.43
2019-05-07T15:04:03.006Z,0.30
2019-05-07T15:06:32.585Z,0.63
2019-05-07T15:09:01.893Z,0.50
2019-05-07T15:11:31.862Z,0.40
2019-05-07T15:14:02.644Z,0.40
2019-05-07T15:16:32.194Z,0.67
2019-05-07T15:19:01.901Z,1.13
2019-05-07T15:21:32.339Z,0.40
2019-05-07T15:24:02.436Z,0.50
2019-05-07T15:26:32.631Z,0.90
2019-05-07T15:29:12.093Z,0.60
2019-05-07T15:32:15.331Z,0.60
2019-05-07T15:34:44.805Z,0.53
2019-05-07T15:37:16.419Z,0.60
2019-05-07T15:39:45.783Z,0.70
2019-05-07T15:42:15.045Z,0.60
2019-05-07T15:44:44.281Z,0.70
2019-05-07T15:47:22.623Z,0.50
2019-05-07T15:49:51.857Z,0.57
2019-05-07T15:52:42.563Z,0.60
2019-05-07T15:55:12.025Z,0.40
2019-05-07T15:57:42.810Z,0.50
2019-05-07T16:00:14.956Z,0.40
2019-05-07T16:02:47.282Z,0.70
2019-05-07T16:05:18.286Z,0.60
2019-05-07T16:07:48.951Z,0.90
2019-05-07T16:10:18.387Z,0.90
2019-05-07T16:12:48.296Z,0.40
2019-05-07T16:15:17.906Z,0.40
2019-05-07T16:17:53.283Z,0.87
2019-05-07T16:20:22.876Z,0.97
2019-05-07T16:22:55.079Z,0.50
2019-05-07T16:25:24.417Z,0.60
2019-05-07T16:27:53.692Z,1.33
2019-05-07T16:30:23.211Z,1.30
2019-05-07T16:32:55.196Z,0.50
2019-05-07T16:35:23.438Z,0.30
2019-05-07T16:37:52.887Z,0.30
2019-05-07T16:40:23.067Z,1.00
2019-05-07T16:42:52.579Z,2.00
2019-05-07T16:45:22.166Z,2.10
2019-05-07T16:47:52.140Z,2.40
2019-05-07T16:50:22.559Z,0.50
2019-05-07T16:52:52.387Z,0.30
2019-05-07T16:55:23.734Z,2.47
2019-05-07T16:58:04.902Z,6.13
2019-05-07T17:00:45.998Z,3.83
2019-05-07T17:03:20.062Z,0.40
2019-05-07T17:05:49.270Z,0.50
2019-05-07T17:08:42.327Z,0.50
2019-05-07T17:11:12.126Z,0.30
2019-05-07T17:13:42.411Z,0.40
2019-05-07T17:16:12.477Z,0.60
2019-05-07T17:18:42.128Z,0.40
2019-05-07T17:21:12.338Z,0.27
2019-05-07T17:23:44.603Z,0.50
2019-05-07T17:26:12.870Z,0.40
2019-05-07T17:28:42.685Z,0.30
2019-05-07T17:31:12.729Z,0.40
2019-05-07T17:33:42.593Z,0.50
2019-05-07T17:36:12.189Z,0.40
2019-05-07T17:38:42.919Z,0.30
2019-05-07T17:41:19.621Z,0.50
2019-05-07T17:43:43.232Z,0.30
2019-05-07T17:46:12.519Z,0.43
2019-05-07T17:48:42.862Z,0.47
2019-05-07T17:51:34.240Z,0.40
2019-05-07T17:54:03.645Z,0.27
2019-05-07T17:56:32.867Z,0.37
2019-05-07T17:59:02.956Z,0.50
2019-05-07T18:01:57.194Z,0.30
2019-05-07T18:04:26.720Z,0.40
2019-05-07T18:06:55.941Z,0.47
2019-05-07T18:09:25.593Z,0.50
2019-05-07T18:11:54.940Z,0.40
2019-05-07T18:14:24.168Z,0.30
2019-05-07T18:17:15.587Z,0.43
2019-05-07T18:19:47.429Z,0.70
2019-05-07T18:22:17.136Z,0.50
2019-05-07T18:24:46.657Z,0.60
2019-05-07T18:27:22.382Z,0.30
2019-05-07T18:29:52.198Z,0.40
2019-05-07T18:32:22.058Z,0.50
2019-05-07T18:34:51.929Z,0.43
2019-05-07T18:37:22.881Z,0.33
2019-05-07T18:39:52.474Z,0.47
2019-05-07T18:42:22.292Z,0.30
2019-05-07T18:44:52.443Z,0.50
2019-05-07T18:47:22.452Z,0.30
2019-05-07T18:49:52.028Z,0.40
2019-05-07T18:52:22.976Z,0.40
2019-05-07T18:54:53.801Z,0.53
2019-05-07T18:57:23.092Z,0.50
2019-05-07T18:59:53.161Z,0.57
2019-05-07T19:02:22.954Z,0.47
2019-05-07T19:04:52.164Z,0.50
2019-05-07T19:07:23.000Z,0.67
2019-05-07T19:09:52.575Z,0.30
2019-05-07T19:12:24.910Z,0.57
2019-05-07T19:14:54.457Z,0.50
2019-05-07T19:17:25.618Z,0.50
2019-05-07T19:19:54.705Z,0.70
2019-05-07T19:22:24.071Z,0.47
2019-05-07T19:24:53.329Z,0.50
2019-05-07T19:27:22.560Z,0.50
2019-05-07T19:29:51.898Z,0.50
2019-05-07T19:32:22.875Z,0.67
2019-05-07T19:34:53.429Z,0.50
2019-05-07T19:37:22.853Z,0.60
2019-05-07T19:39:52.403Z,0.37
2019-05-07T19:42:21.674Z,0.43
2019-05-07T19:44:51.842Z,0.50
2019-05-07T19:47:23.278Z,0.73
2019-05-07T19:49:52.542Z,0.60
2019-05-07T19:52:23.085Z,0.40
2019-05-07T19:55:01.248Z,0.97
2019-05-07T19:57:33.124Z,0.40
2019-05-07T20:00:03.329Z,0.50
2019-05-07T20:02:37.936Z,0.50
2019-05-07T20:05:07.688Z,0.40
2019-05-07T20:07:37.618Z,0.50
2019-05-07T20:10:08.440Z,0.40
2019-05-07T20:12:37.815Z,0.40
2019-05-07T20:15:07.701Z,0.60
2019-05-07T20:17:37.087Z,0.40
2019-05-07T20:20:07.239Z,0.57
2019-05-07T20:22:36.762Z,0.47
2019-05-07T20:25:16.425Z,0.60
2019-05-07T20:27:38.688Z,0.50
2019-05-07T20:30:12.025Z,0.70
2019-05-07T20:32:42.643Z,0.60
2019-05-07T20:35:12.085Z,0.50
2019-05-07T20:37:41.985Z,0.40
2019-05-07T20:40:12.205Z,0.53
2019-05-07T20:42:42.797Z,0.40
2019-05-07T20:45:12.539Z,0.50
2019-05-07T20:47:42.234Z,0.60
2019-05-07T20:50:12.766Z,0.60
2019-05-07T20:52:42.416Z,0.37
2019-05-07T20:55:34.341Z,0.40
2019-05-07T20:58:03.697Z,0.50
2019-05-07T21:00:32.934Z,0.40
2019-05-07T21:03:23.896Z,0.40
2019-05-07T21:05:53.407Z,0.67
2019-05-07T21:08:23.291Z,0.57
2019-05-07T21:10:53.653Z,0.73
2019-05-07T21:13:30.938Z,0.50
2019-05-07T21:15:54.370Z,0.50
2019-05-07T21:18:23.751Z,0.60
2019-05-07T21:20:53.245Z,0.70
2019-05-07T21:23:23.319Z,0.47
2019-05-07T21:25:53.221Z,0.40
2019-05-07T21:28:22.670Z,0.50
2019-05-07T21:30:52.970Z,0.50
2019-05-07T21:33:23.001Z,0.60
2019-05-07T21:35:52.559Z,0.50
2019-05-07T21:38:22.578Z,0.57
2019-05-07T21:40:51.913Z,0.70
2019-05-07T21:43:22.190Z,0.60
2019-05-07T21:45:52.962Z,0.70
2019-05-07T21:48:22.572Z,0.50
2019-05-07T21:50:52.317Z,0.67
2019-05-07T21:53:32.982Z,0.50
2019-05-07T21:56:12.195Z,0.63
2019-05-07T21:59:03.032Z,0.60
2019-05-07T22:01:36.605Z,0.63
2019-05-07T22:04:06.260Z,0.60
2019-05-07T22:06:35.496Z,0.70
2019-05-07T22:09:07.576Z,0.60
2019-05-07T22:11:36.822Z,0.67
2019-05-07T22:14:06.090Z,0.90
2019-05-07T22:16:35.417Z,0.60
2019-05-07T22:19:04.727Z,0.50
2019-05-07T22:21:34.363Z,0.60
2019-05-07T22:24:03.920Z,0.73
2019-05-07T22:26:33.119Z,0.73
2019-05-07T22:29:03.189Z,0.53
2019-05-07T22:31:52.980Z,0.60
2019-05-07T22:34:56.604Z,0.67
2019-05-07T22:37:25.925Z,0.63
2019-05-07T22:39:55.197Z,1.10
2019-05-07T22:42:24.429Z,0.70
2019-05-07T22:44:53.762Z,0.90
2019-05-07T22:47:23.205Z,0.77
2019-05-07T22:49:53.589Z,0.60
2019-05-07T22:52:23.371Z,0.90
2019-05-07T22:54:52.589Z,0.53
2019-05-07T22:57:41.995Z,0.50
2019-05-07T23:00:15.738Z,0.70
2019-05-07T23:02:45.629Z,0.60
2019-05-07T23:05:14.974Z,0.60
2019-05-07T23:07:44.199Z,0.60
2019-05-07T23:10:13.945Z,0.50
2019-05-07T23:12:43.152Z,0.70
2019-05-07T23:15:12.664Z,0.70
2019-05-07T23:17:42.141Z,0.60
2019-05-07T23:20:11.469Z,0.60
2019-05-07T23:22:42.760Z,0.53
2019-05-07T23:25:14.190Z,0.43
2019-05-07T23:27:43.704Z,0.47
2019-05-07T23:30:15.100Z,0.63
2019-05-07T23:32:44.373Z,0.50
2019-05-07T23:35:13.690Z,0.70
2019-05-07T23:37:44.262Z,0.43
2019-05-07T23:40:20.367Z,0.70
2019-05-07T23:42:52.179Z,0.70
2019-05-07T23:45:22.176Z,0.60
2019-05-07T23:47:51.999Z,0.70
2019-05-07T23:50:21.385Z,0.50
2019-05-07T23:52:52.594Z,0.70
2019-05-07T23:55:22.846Z,0.70
2019-05-07T23:57:52.624Z,0.73
